Time;durP1;ratioP1;P1;durP2;ratioP2;P2;SDS_P1;SDS_P2;PMS_P1;PMS_P2;Temp;Humidity;BMP_temperature;BMP_pressure;BME280_temperature;BME280_humidity;BME280_pressure;Samples;Min_cycle;Max_cycle;Signal;HPM_P1;HPM_P2
2022/04/18 00:01:57;;;;;;;19.83;11.07;;;;;;;6.53;60.19;102140.91;4975140;28;20034;-73
2022/04/18 00:04:23;;;;;;;22.58;11.95;;;;;;;6.38;61.75;102141.44;4958558;28;20057;-73
2022/04/18 00:06:48;;;;;;;22.38;13.00;;;;;;;6.18;63.13;102127.41;4971022;28;20083;-73
2022/04/18 00:09:14;;;;;;;21.00;12.98;;;;;;;6.14;65.06;102131.38;4946581;28;20056;-73
2022/04/18 00:11:40;;;;;;;22.73;13.00;;;;;;;6.21;66.56;102123.56;4959310;28;20041;-73
2022/04/18 00:14:05;;;;;;;24.42;12.05;;;;;;;6.16;67.80;102128.53;4955259;28;20541;-73
2022/04/18 00:16:31;;;;;;;21.92;13.02;;;;;;;6.08;69.42;102117.78;4986599;28;20033;-73
2022/04/18 00:18:56;;;;;;;24.50;12.95;;;;;;;6.03;70.93;102120.03;4954367;28;21268;-74
2022/04/18 00:21:22;;;;;;;26.98;12.88;;;;;;;6.04;73.37;102116.38;4974600;28;20033;-73
2022/04/18 00:23:47;;;;;;;24.98;12.38;;;;;;;5.96;74.05;102109.09;4973276;28;20048;-73
2022/04/18 00:26:13;;;;;;;24.52;13.55;;;;;;;6.00;76.53;102109.63;4954355;28;20061;-74
2022/04/18 00:28:39;;;;;;;23.05;12.50;;;;;;;6.00;77.13;102113.16;4969468;28;20386;-73
2022/04/18 00:31:05;;;;;;;24.08;12.85;;;;;;;5.96;78.00;102112.63;4956047;28;20274;-73
2022/04/18 00:33:31;;;;;;;23.15;13.05;;;;;;;6.06;78.14;102117.06;4985674;28;20052;-73
2022/04/18 00:35:56;;;;;;;24.00;13.55;;;;;;;6.11;77.46;102117.47;4955666;28;20145;-74
2022/04/18 00:38:22;;;;;;;24.17;12.43;;;;;;;6.13;77.10;102105.59;4975605;28;20044;-73
2022/04/18 00:40:48;;;;;;;28.92;13.10;;;;;;;6.12;78.29;102103.09;4967574;28;21119;-73
2022/04/18 00:43:14;;;;;;;24.58;12.48;;;;;;;6.17;78.85;102106.13;4965462;28;20057;-73
2022/04/18 00:45:40;;;;;;;22.65;12.50;;;;;;;6.12;79.61;102108.44;4971452;28;20033;-73
2022/04/18 00:48:06;;;;;;;22.88;12.52;;;;;;;6.18;78.69;102107.84;4956240;28;20045;-73
2022/04/18 00:50:33;;;;;;;25.02;13.75;;;;;;;6.18;78.50;102102.50;4970848;28;20041;-73
2022/04/18 00:52:59;;;;;;;21.02;13.63;;;;;;;6.19;77.59;102106.84;4952872;28;20145;-73
2022/04/18 00:55:26;;;;;;;26.05;13.85;;;;;;;6.10;79.13;102099.72;4987819;28;20029;-73
2022/04/18 00:57:53;;;;;;;25.90;12.90;;;;;;;6.16;78.97;102093.75;4939590;28;20187;-73
2022/04/18 01:00:19;;;;;;;26.83;13.15;;;;;;;6.23;78.46;102092.16;4977242;28;20029;-72
2022/04/18 01:02:45;;;;;;;22.52;12.88;;;;;;;6.16;79.08;102083.06;4972080;28;20068;-73
2022/04/18 01:05:10;;;;;;;23.38;13.02;;;;;;;6.14;80.75;102085.91;4960196;28;20046;-73
2022/04/18 01:07:36;;;;;;;24.10;13.40;;;;;;;6.07;80.74;102073.25;4973705;28;20174;-74
2022/04/18 01:10:03;;;;;;;25.23;13.55;;;;;;;6.07;81.91;102074.13;4959917;28;20104;-73
2022/04/18 01:12:29;;;;;;;24.75;13.57;;;;;;;5.94;84.24;102085.19;4961817;28;20436;-73
2022/04/18 01:14:54;;;;;;;25.83;13.70;;;;;;;5.83;86.62;102074.69;4963326;28;20099;-73
2022/04/18 01:17:20;;;;;;;24.58;14.38;;;;;;;5.77;89.04;102075.28;4976476;28;20465;-73
2022/04/18 01:19:46;;;;;;;21.23;12.93;;;;;;;5.77;89.13;102072.63;4956829;28;20049;-74
2022/04/18 01:22:15;;;;;;;22.30;13.75;;;;;;;5.75;90.37;102072.75;4975489;28;20033;-73
2022/04/18 01:30:13;;;;;;;27.02;13.43;;;;;;;5.62;91.67;102066.13;4981400;28;20072;-73
2022/04/18 01:32:38;;;;;;;24.33;13.13;;;;;;;5.71;91.82;102066.03;4979103;28;20050;-73
2022/04/18 01:35:04;;;;;;;21.63;12.73;;;;;;;5.69;91.73;102064.53;4980378;28;20040;-73
2022/04/18 01:37:30;;;;;;;21.00;12.60;;;;;;;5.59;94.37;102064.59;4953565;28;20057;-73
2022/04/18 01:39:55;;;;;;;27.17;13.82;;;;;;;5.57;93.39;102069.22;4982169;28;20131;-73
2022/04/18 01:42:21;;;;;;;29.83;14.75;;;;;;;5.47;96.04;102066.59;4963048;28;20407;-74
2022/04/18 01:44:46;;;;;;;27.73;13.82;;;;;;;5.52;96.05;102065.34;4976857;28;20705;-73
2022/04/18 01:47:12;;;;;;;24.92;13.68;;;;;;;5.57;96.27;102055.84;4964200;28;20139;-73
2022/04/18 01:49:37;;;;;;;24.20;13.82;;;;;;;5.63;92.74;102054.44;4973442;28;20034;-73
2022/04/18 01:52:03;;;;;;;27.92;14.07;;;;;;;5.61;94.16;102056.41;4974438;28;23396;-73
2022/04/18 01:54:28;;;;;;;27.90;15.13;;;;;;;5.56;93.15;102058.69;4957834;28;20046;-73
2022/04/18 01:56:54;;;;;;;28.65;14.98;;;;;;;5.49;95.08;102047.75;4973749;28;20171;-73
2022/04/18 01:59:19;;;;;;;25.02;14.40;;;;;;;5.46;97.10;102054.25;4961583;28;20053;-73
2022/04/18 02:01:45;;;;;;;30.08;14.60;;;;;;;5.39;98.49;102045.13;4979220;28;20076;-73
2022/04/18 02:04:10;;;;;;;25.25;13.93;;;;;;;5.39;97.85;102046.97;4960906;28;20164;-73
2022/04/18 02:06:35;;;;;;;26.27;14.02;;;;;;;5.38;98.91;102040.78;4978842;28;20541;-73
2022/04/18 02:09:01;;;;;;;25.13;14.95;;;;;;;5.41;98.48;102045.00;4975425;28;20599;-73
2022/04/18 02:11:27;;;;;;;25.40;14.82;;;;;;;5.46;97.44;102046.22;4963964;28;20181;-73
2022/04/18 02:13:52;;;;;;;23.60;13.77;;;;;;;5.43;98.00;102041.16;4977731;28;20167;-73
2022/04/18 02:16:21;;;;;;;27.02;14.20;;;;;;;5.45;97.10;102035.69;4961577;28;20089;-73
2022/04/18 02:18:47;;;;;;;24.92;14.48;;;;;;;5.35;97.99;102030.41;4967289;28;20588;-73
2022/04/18 02:21:12;;;;;;;26.00;13.90;;;;;;;5.25;100.00;102030.44;4957007;28;20088;-73
2022/04/18 02:23:39;;;;;;;24.13;14.27;;;;;;;5.17;100.00;102032.19;4968898;28;20037;-73
2022/04/18 02:26:04;;;;;;;25.33;14.07;;;;;;;5.19;100.00;102040.88;4968213;28;20033;-73
2022/04/18 02:28:31;;;;;;;24.20;14.48;;;;;;;5.20;100.00;102027.38;4968580;28;20056;-73
2022/04/18 02:30:57;;;;;;;23.73;13.95;;;;;;;5.27;100.00;102022.31;4967587;28;20251;-73
2022/04/18 02:33:22;;;;;;;25.90;13.57;;;;;;;5.28;100.00;102028.47;4952043;28;20096;-72
2022/04/18 02:35:48;;;;;;;27.65;14.80;;;;;;;5.23;100.00;102023.59;4967478;28;20394;-73
2022/04/18 02:38:13;;;;;;;24.23;13.40;;;;;;;5.14;100.00;102027.13;4953473;28;20053;-73
2022/04/18 02:40:39;;;;;;;20.92;14.15;;;;;;;5.06;100.00;102021.72;4966284;28;20034;-73
2022/04/18 02:43:05;;;;;;;25.85;14.10;;;;;;;5.00;100.00;102017.78;4954122;28;20050;-73
2022/04/18 02:45:31;;;;;;;25.23;13.70;;;;;;;4.91;100.00;102014.16;4969117;28;20029;-73
2022/04/18 02:47:57;;;;;;;23.85;14.13;;;;;;;4.90;100.00;102014.31;4954496;28;20037;-73
2022/04/18 02:50:22;;;;;;;25.25;14.05;;;;;;;4.87;100.00;102009.25;4954869;28;20084;-73
2022/04/18 02:52:48;;;;;;;25.85;14.18;;;;;;;4.85;100.00;102016.59;4966276;28;20040;-73
2022/04/18 02:55:13;;;;;;;34.35;14.73;;;;;;;4.89;100.00;102012.63;4957705;28;20049;-73
2022/04/18 02:57:39;;;;;;;26.73;14.63;;;;;;;4.93;100.00;102011.34;4968175;28;20037;-73
2022/04/18 03:00:08;;;;;;;24.85;14.07;;;;;;;4.97;100.00;102010.91;4950911;28;21422;-73
2022/04/18 03:02:33;;;;;;;22.10;12.88;;;;;;;5.01;100.00;102003.44;4966656;28;20083;-73
2022/04/18 03:04:59;;;;;;;28.52;14.93;;;;;;;4.99;100.00;101994.75;4950794;28;20604;-73
2022/04/18 03:07:24;;;;;;;28.25;14.20;;;;;;;4.96;100.00;101998.56;4966584;28;20602;-73
2022/04/18 03:09:50;;;;;;;23.55;13.55;;;;;;;4.86;100.00;101997.75;4970391;28;20175;-73
2022/04/18 03:12:15;;;;;;;24.05;13.32;;;;;;;4.77;100.00;101999.47;4956322;28;20060;-73
2022/04/18 03:14:41;;;;;;;24.00;13.80;;;;;;;4.81;100.00;101999.16;4965491;28;20041;-73
2022/04/18 03:17:06;;;;;;;24.55;14.10;;;;;;;4.78;100.00;101997.66;4949819;28;20049;-73
2022/04/18 03:19:32;;;;;;;22.35;12.80;;;;;;;4.90;100.00;101993.78;4965914;28;20041;-73
2022/04/18 03:21:59;;;;;;;28.50;14.35;;;;;;;4.90;100.00;101993.78;4950021;28;20084;-73
2022/04/18 03:24:24;;;;;;;27.42;13.55;;;;;;;4.76;100.00;101996.94;4967883;28;20132;-73
2022/04/18 03:26:50;;;;;;;25.55;13.32;;;;;;;4.71;100.00;101993.88;4949624;28;20056;-73
2022/04/18 03:29:15;;;;;;;29.17;14.23;;;;;;;4.63;100.00;101983.06;4972323;28;23399;-73
2022/04/18 03:31:40;;;;;;;24.92;14.30;;;;;;;4.66;100.00;101990.78;4967117;28;20052;-73
2022/04/18 03:34:06;;;;;;;23.75;13.13;;;;;;;4.62;100.00;102000.09;4951166;28;20183;-73
2022/04/18 03:41:59;;;;;;;26.85;14.32;;;;;;;4.53;100.00;101997.31;4966298;28;20039;-73
2022/04/18 03:44:25;;;;;;;27.00;14.80;;;;;;;4.38;100.00;101988.06;4947357;28;20050;-73
2022/04/18 03:46:50;;;;;;;26.83;13.65;;;;;;;4.44;100.00;101992.84;4965690;28;20046;-73
2022/04/18 03:49:16;;;;;;;24.70;13.60;;;;;;;4.53;100.00;101991.97;4950084;28;20054;-73
2022/04/18 03:51:41;;;;;;;25.48;13.60;;;;;;;4.46;100.00;101984.69;4967419;28;22488;-73
2022/04/18 03:54:07;;;;;;;23.42;13.82;;;;;;;4.46;100.00;101985.53;4966746;28;20124;-73
2022/04/18 03:56:32;;;;;;;24.42;12.93;;;;;;;4.50;100.00;101986.94;4953527;28;20061;-73
2022/04/18 03:58:58;;;;;;;22.95;12.82;;;;;;;4.47;100.00;101986.38;4965135;28;20036;-73
2022/04/18 04:01:23;;;;;;;21.77;13.45;;;;;;;4.51;100.00;101987.75;4947795;28;20096;-73
2022/04/18 04:03:50;;;;;;;21.65;12.85;;;;;;;4.51;100.00;101982.44;4968707;28;20123;-73
2022/04/18 04:06:15;;;;;;;21.52;12.38;;;;;;;4.46;100.00;101982.88;4951911;28;20050;-73
2022/04/18 04:08:40;;;;;;;25.50;14.05;;;;;;;4.44;100.00;101976.81;4965520;28;20037;-73
2022/04/18 04:11:06;;;;;;;19.83;12.20;;;;;;;4.45;100.00;101983.84;4951319;28;20486;-73
2022/04/18 04:13:31;;;;;;;20.10;11.70;;;;;;;4.42;100.00;101981.47;4966589;28;20548;-73
2022/04/18 04:15:57;;;;;;;26.95;12.10;;;;;;;4.39;100.00;101973.75;4967913;28;21105;-73
2022/04/18 04:18:23;;;;;;;25.48;12.98;;;;;;;4.52;100.00;101976.94;4954293;28;20049;-73
2022/04/18 04:20:49;;;;;;;21.67;12.52;;;;;;;4.64;100.00;101987.44;4966157;28;20044;-73
2022/04/18 04:23:14;;;;;;;24.05;12.50;;;;;;;4.66;100.00;101985.47;4947462;28;20569;-73
2022/04/18 04:25:39;;;;;;;21.08;12.93;;;;;;;4.59;100.00;101979.84;4965124;28;20067;-73
2022/04/18 04:28:05;;;;;;;23.52;12.40;;;;;;;4.50;100.00;101976.25;4951787;28;20068;-73
2022/04/18 04:30:30;;;;;;;22.75;12.70;;;;;;;4.41;100.00;101977.09;4957950;28;20081;-73
2022/04/18 04:32:56;;;;;;;18.75;12.30;;;;;;;4.39;100.00;101976.44;4964215;28;20026;-73
2022/04/18 04:35:21;;;;;;;22.60;12.93;;;;;;;4.35;100.00;101972.34;4952172;28;20049;-74
2022/04/18 04:37:47;;;;;;;21.75;13.55;;;;;;;4.29;100.00;101967.63;4967580;28;20037;-74
2022/04/18 04:40:13;;;;;;;20.15;12.43;;;;;;;4.24;100.00;101970.69;4951287;28;20072;-74
2022/04/18 04:42:38;;;;;;;21.25;12.45;;;;;;;4.21;100.00;101967.47;4968293;28;20040;-73
2022/04/18 04:45:05;;;;;;;23.08;13.52;;;;;;;4.12;100.00;101971.00;4952743;28;20077;-74
2022/04/18 04:47:33;;;;;;;19.25;12.23;;;;;;;4.00;100.00;101979.19;4960255;28;20050;-74
2022/04/18 04:49:59;;;;;;;22.13;12.90;;;;;;;3.99;100.00;101972.13;4956850;28;20065;-73
2022/04/18 04:52:24;;;;;;;21.20;12.32;;;;;;;4.01;100.00;101972.84;4974915;28;20129;-74
2022/04/18 04:54:50;;;;;;;25.02;14.43;;;;;;;4.02;100.00;101966.53;4973742;28;20037;-74
2022/04/18 04:57:15;;;;;;;21.73;12.82;;;;;;;4.10;100.00;101972.97;4960626;28;20057;-73
2022/04/18 04:59:41;;;;;;;22.52;11.93;;;;;;;4.15;100.00;101981.41;4963437;28;20033;-73
2022/04/18 05:02:06;;;;;;;21.13;13.23;;;;;;;4.13;100.00;101978.03;4954702;28;20056;-74
2022/04/18 05:04:32;;;;;;;20.52;11.75;;;;;;;4.16;100.00;101973.25;4967861;28;20044;-74
2022/04/18 05:06:58;;;;;;;20.63;12.60;;;;;;;4.19;100.00;101977.47;4955491;28;20057;-74
2022/04/18 05:09:23;;;;;;;22.95;12.48;;;;;;;4.32;100.00;101975.31;4969854;28;20033;-74
2022/04/18 05:11:49;;;;;;;18.48;11.88;;;;;;;4.44;100.00;101976.00;4957406;28;20045;-74
2022/04/18 05:14:15;;;;;;;23.75;12.57;;;;;;;4.63;100.00;101978.56;4972425;28;20045;-74
2022/04/18 05:16:41;;;;;;;22.48;12.50;;;;;;;5.18;100.00;101973.25;4968846;28;20132;-74
2022/04/18 05:19:06;;;;;;;21.65;12.57;;;;;;;6.04;100.00;101966.56;4955438;28;20107;-74
2022/04/18 05:21:32;;;;;;;16.95;11.23;;;;;;;6.67;95.05;101974.38;4969158;28;20052;-74
2022/04/18 05:23:57;;;;;;;19.50;11.05;;;;;;;6.90;88.06;101970.09;4953471;28;20180;-73
2022/04/18 05:26:22;;;;;;;23.88;12.35;;;;;;;7.15;83.84;101975.56;4974500;28;20037;-74
2022/04/18 05:28:48;;;;;;;21.70;11.98;;;;;;;7.29;80.19;101974.91;4951170;28;20058;-74
2022/04/18 05:31:17;;;;;;;20.42;11.65;;;;;;;7.24;79.78;101969.22;4958858;28;23247;-74
2022/04/18 05:33:42;;;;;;;23.52;12.90;;;;;;;7.09;81.05;101970.84;4972833;28;20033;-74
2022/04/18 05:36:08;;;;;;;17.75;11.32;;;;;;;7.48;79.28;101962.25;4941113;28;20045;-74
2022/04/18 05:38:34;;;;;;;24.25;12.52;;;;;;;7.98;73.55;101970.16;4967254;28;20056;-74
2022/04/18 05:40:59;;;;;;;20.40;12.52;;;;;;;8.58;71.12;101963.53;4954462;28;20050;-74
2022/04/18 05:43:25;;;;;;;19.35;12.50;;;;;;;9.65;63.37;101956.63;4971491;28;20049;-72
2022/04/18 05:45:50;;;;;;;24.45;12.25;;;;;;;10.52;58.30;101973.16;4957933;28;20081;-71
2022/04/18 05:48:16;;;;;;;20.52;12.43;;;;;;;11.05;55.61;101977.63;4968323;28;20049;-72
2022/04/18 05:50:45;;;;;;;23.20;12.48;;;;;;;11.40;54.43;101970.56;4952513;28;23502;-72
2022/04/18 05:53:12;;;;;;;19.98;12.15;;;;;;;11.92;52.28;101977.56;4969768;28;20211;-72
2022/04/18 05:55:37;;;;;;;18.13;11.88;;;;;;;12.08;51.59;101980.00;4984554;28;20568;-72
2022/04/18 05:58:04;;;;;;;20.88;12.27;;;;;;;12.45;49.43;101975.28;4961513;28;20089;-72
2022/04/18 06:00:32;;;;;;;19.75;12.40;;;;;;;12.71;48.16;101980.03;4972980;28;20715;-72
2022/04/18 06:02:58;;;;;;;17.75;11.57;;;;;;;12.35;49.44;101974.78;4952458;28;20132;-72
2022/04/18 06:05:23;;;;;;;18.05;11.73;;;;;;;12.44;49.15;101979.00;4967437;28;22522;-73
2022/04/18 06:07:49;;;;;;;16.58;11.68;;;;;;;12.54;48.88;101976.78;4952059;28;20062;-72
2022/04/18 06:10:14;;;;;;;16.75;12.13;;;;;;;12.89;48.33;101980.31;4971745;28;20044;-73
2022/04/18 06:12:39;;;;;;;20.08;11.55;;;;;;;13.43;47.04;101972.44;4960065;28;20041;-73
2022/04/18 06:15:05;;;;;;;19.20;12.45;;;;;;;13.85;46.75;101984.81;4962158;28;20041;-72
2022/04/18 06:17:30;;;;;;;21.00;12.02;;;;;;;13.92;44.90;101980.22;4955747;28;20045;-73
2022/04/18 06:19:56;;;;;;;17.45;11.57;;;;;;;14.19;45.23;101982.94;4952320;28;20067;-73
2022/04/18 06:22:22;;;;;;;19.48;12.85;;;;;;;14.33;44.36;101979.19;4967994;28;20068;-73
2022/04/18 06:24:47;;;;;;;15.15;11.82;;;;;;;14.46;44.02;101973.75;4950928;28;20053;-73
2022/04/18 06:27:13;;;;;;;17.75;12.40;;;;;;;14.68;43.36;101984.38;4968846;28;20680;-73
2022/04/18 06:29:39;;;;;;;18.80;12.40;;;;;;;14.65;43.70;101987.50;4953648;28;20149;-72
2022/04/18 06:32:05;;;;;;;17.17;10.95;;;;;;;14.71;43.02;101983.97;4970382;28;20044;-72
2022/04/18 06:34:30;;;;;;;15.30;10.88;;;;;;;14.76;43.04;101978.72;4970070;28;20034;-72
2022/04/18 06:36:56;;;;;;;18.25;11.70;;;;;;;15.19;42.25;101983.56;4954168;28;20053;-72
2022/04/18 06:39:21;;;;;;;17.45;11.18;;;;;;;14.99;42.14;101979.06;4966371;28;20044;-72
2022/04/18 06:41:47;;;;;;;15.35;10.70;;;;;;;14.99;41.22;101984.50;4951884;28;20092;-72
2022/04/18 06:44:12;;;;;;;17.67;10.80;;;;;;;15.32;40.62;101988.94;4970533;28;20072;-72
2022/04/18 06:46:38;;;;;;;16.17;10.50;;;;;;;15.44;40.79;101976.34;4950217;28;20148;-72
2022/04/18 06:49:09;;;;;;;15.75;10.30;;;;;;;15.89;40.16;101975.44;4970160;28;20044;-72
2022/04/18 06:51:34;;;;;;;20.13;10.70;;;;;;;15.90;39.74;101969.81;4954482;28;20066;-72
2022/04/18 06:54:00;;;;;;;15.55;9.85;;;;;;;16.04;38.91;101975.13;4967582;28;20099;-72
2022/04/18 06:59:09;;;;;;;16.58;10.02;;;;;;;16.67;37.79;101985.81;4950736;28;20052;-72
2022/04/18 07:01:37;;;;;;;16.52;10.88;;;;;;;16.61;36.65;101984.00;4966660;28;20049;-72
2022/04/18 07:04:03;;;;;;;14.30;10.38;;;;;;;16.54;37.56;101981.38;4951415;28;20055;-72
2022/04/18 07:06:28;;;;;;;18.05;10.75;;;;;;;16.53;36.80;101974.28;4968936;28;20030;-72
2022/04/18 07:08:54;;;;;;;18.13;11.10;;;;;;;16.28;37.53;101965.28;4952738;28;20048;-72
2022/04/18 07:11:19;;;;;;;14.10;9.50;;;;;;;16.24;37.25;101967.63;4965741;28;20593;-72
2022/04/18 07:13:45;;;;;;;15.80;10.50;;;;;;;16.03;37.86;101965.31;4950296;28;20712;-72
2022/04/18 07:16:10;;;;;;;15.27;10.95;;;;;;;16.65;38.48;101972.44;4968972;28;20087;-72
2022/04/18 07:18:36;;;;;;;15.60;10.82;;;;;;;17.65;36.70;101971.19;4968994;28;20128;-72
2022/04/18 07:21:02;;;;;;;14.77;9.88;;;;;;;17.52;36.65;101965.97;4954685;28;20061;-72
2022/04/18 07:23:28;;;;;;;16.90;10.63;;;;;;;17.35;35.92;101966.59;4986362;28;20755;-72
2022/04/18 07:25:55;;;;;;;17.02;9.50;;;;;;;17.38;36.49;101971.59;4955514;28;20046;-71
2022/04/18 07:28:20;;;;;;;15.25;9.57;;;;;;;17.40;36.51;101969.44;4967393;28;20048;-72
2022/04/18 07:30:46;;;;;;;17.00;10.43;;;;;;;17.29;37.03;101972.97;4952590;28;20053;-72
2022/04/18 07:33:14;;;;;;;18.38;10.25;;;;;;;17.26;36.97;101962.53;4965705;28;20041;-73
2022/04/18 07:35:40;;;;;;;18.33;10.68;;;;;;;17.71;36.55;101962.09;4959243;28;20059;-73
2022/04/18 07:40:49;;;;;;;17.35;10.88;;;;;;;17.78;36.33;101972.94;4949050;28;20044;-73
2022/04/18 07:43:14;;;;;;;14.50;9.25;;;;;;;17.65;36.00;101957.56;4943640;28;20074;-74
2022/04/18 07:45:40;;;;;;;17.00;10.25;;;;;;;17.83;35.63;101967.59;4960784;28;20026;-74
2022/04/18 07:48:09;;;;;;;16.95;10.80;;;;;;;17.51;35.77;101959.66;4936993;28;20049;-74
2022/04/18 07:53:19;;;;;;;14.02;10.25;;;;;;;17.27;36.29;101969.66;4945705;28;25943;-74
2022/04/18 07:55:45;;;;;;;15.82;10.32;;;;;;;17.53;35.79;101963.00;4949605;28;20046;-74
2022/04/18 07:58:10;;;;;;;17.10;10.15;;;;;;;17.91;35.65;101969.16;4945587;28;20038;-73
2022/04/18 08:00:35;;;;;;;13.00;9.32;;;;;;;17.99;35.17;101971.53;4960711;28;20044;-73
2022/04/18 08:03:01;;;;;;;13.73;9.35;;;;;;;18.08;34.39;101959.25;4963064;28;20052;-73
2022/04/18 08:05:26;;;;;;;13.70;8.80;;;;;;;18.29;33.65;101955.09;4949770;28;20057;-72
2022/04/18 08:07:52;;;;;;;12.50;9.18;;;;;;;18.75;34.50;101961.59;4971910;28;21171;-73
2022/04/18 08:10:21;;;;;;;11.85;8.60;;;;;;;18.64;32.19;101952.34;4949483;28;20084;-73
2022/04/18 08:12:49;;;;;;;13.15;8.23;;;;;;;18.57;32.99;101951.63;4971671;28;20042;-74
2022/04/18 08:15:15;;;;;;;14.85;8.55;;;;;;;18.10;33.27;101957.09;4908072;28;20060;-73
2022/04/18 08:17:41;;;;;;;16.52;9.55;;;;;;;18.74;32.87;101957.19;4971911;28;20033;-73
2022/04/18 08:20:07;;;;;;;14.63;8.75;;;;;;;18.65;32.51;101958.63;4962203;28;20048;-72
2022/04/18 08:22:32;;;;;;;12.23;7.45;;;;;;;19.10;31.77;101955.22;4958791;28;20049;-72
2022/04/18 08:24:58;;;;;;;12.10;8.90;;;;;;;18.91;32.05;101952.66;4969899;28;20090;-72
2022/04/18 08:27:23;;;;;;;13.07;8.23;;;;;;;18.74;31.76;101947.13;4955022;28;20076;-72
2022/04/18 08:29:48;;;;;;;11.95;8.13;;;;;;;18.59;32.05;101952.22;4969794;28;20034;-72
2022/04/18 08:32:14;;;;;;;15.63;8.38;;;;;;;18.43;32.56;101952.94;4954856;28;20045;-72
2022/04/18 08:34:40;;;;;;;12.23;7.72;;;;;;;18.20;32.76;101946.44;4971171;28;20053;-72
2022/04/18 08:37:07;;;;;;;15.50;8.13;;;;;;;18.14;33.44;101941.91;4943055;28;20091;-73
2022/04/18 08:39:32;;;;;;;14.43;8.48;;;;;;;18.75;32.52;101942.50;4968620;28;21559;-72
2022/04/18 08:41:59;;;;;;;12.05;8.50;;;;;;;19.28;32.78;101946.84;4970560;28;23411;-73
2022/04/18 08:44:27;;;;;;;15.55;8.82;;;;;;;19.07;32.46;101940.16;4955568;28;20060;-73
2022/04/18 08:46:56;;;;;;;13.02;8.02;;;;;;;19.24;31.35;101941.03;4967542;28;20057;-74
2022/04/18 08:54:51;;;;;;;13.13;8.18;;;;;;;19.16;32.82;101935.94;4955597;28;20096;-74
2022/04/18 08:57:16;;;;;;;11.68;8.20;;;;;;;19.47;32.04;101931.88;4966048;28;21308;-74
2022/04/18 08:59:42;;;;;;;13.68;7.60;;;;;;;19.60;31.72;101944.41;4952692;28;20057;-74
2022/04/18 09:02:07;;;;;;;15.43;7.82;;;;;;;19.41;32.37;101937.50;4963865;28;20041;-74
2022/04/18 09:04:33;;;;;;;14.32;7.70;;;;;;;19.63;32.24;101933.03;4950803;28;20762;-72
2022/04/18 09:07:11;;;;;;;12.40;8.20;;;;;;;19.54;31.98;101929.00;4968973;28;20060;-73
2022/04/18 09:09:37;;;;;;;13.20;8.13;;;;;;;19.37;31.99;101933.59;4964025;28;20037;-73
2022/04/18 09:12:02;;;;;;;11.95;7.78;;;;;;;19.61;32.17;101926.09;4950413;28;20123;-73
2022/04/18 09:14:28;;;;;;;13.48;7.80;;;;;;;19.88;32.15;101937.25;4980493;28;20042;-73
2022/04/18 09:16:54;;;;;;;12.98;7.75;;;;;;;20.22;32.92;101929.88;4952970;28;20068;-73
2022/04/18 09:19:20;;;;;;;9.93;7.80;;;;;;;20.34;31.67;101933.31;4952940;28;20041;-74
2022/04/18 09:21:55;;;;;;;12.32;8.10;;;;;;;20.56;31.52;101940.75;4951241;28;20128;-73
2022/04/18 09:24:37;;;;;;;13.25;7.82;;;;;;;20.25;31.41;101934.81;4965321;28;20037;-73
2022/04/18 09:27:06;;;;;;;13.00;8.00;;;;;;;20.02;31.83;101927.63;4951594;28;20050;-74
2022/04/18 09:29:38;;;;;;;12.73;8.20;;;;;;;19.63;31.59;101922.09;4970232;28;20034;-74
2022/04/18 09:32:13;;;;;;;11.03;7.17;;;;;;;20.08;31.13;101915.72;4966959;28;20033;-74
2022/04/18 09:34:39;;;;;;;15.88;8.40;;;;;;;20.56;30.63;101925.16;4957774;28;20049;-74
2022/04/18 09:37:17;;;;;;;13.02;7.55;;;;;;;20.56;30.28;101914.22;4974795;28;20624;-74
2022/04/18 09:39:53;;;;;;;13.30;8.13;;;;;;;20.68;30.66;101917.66;4964018;28;20060;-73
2022/04/18 09:42:21;;;;;;;10.73;7.05;;;;;;;20.58;29.74;101923.00;4981582;28;20037;-73
2022/04/18 09:44:47;;;;;;;9.50;7.50;;;;;;;20.58;29.43;101922.19;4956296;28;20041;-73
2022/04/18 09:47:23;;;;;;;11.52;6.72;;;;;;;20.42;29.72;101918.38;4971212;28;20053;-73
2022/04/18 09:49:49;;;;;;;9.63;7.78;;;;;;;20.59;29.55;101910.97;4939502;28;20072;-74
2022/04/18 09:52:20;;;;;;;9.65;7.28;;;;;;;20.60;29.74;101920.81;4969805;28;20029;-73
2022/04/18 09:54:52;;;;;;;13.63;7.63;;;;;;;20.37;29.54;101910.91;4944884;28;20077;-73
2022/04/18 09:57:28;;;;;;;10.90;8.30;;;;;;;20.33;30.13;101912.50;4972480;28;20087;-73
2022/04/18 09:59:56;;;;;;;14.23;7.75;;;;;;;20.36;29.91;101916.63;4971446;28;20029;-73
2022/04/18 10:02:24;;;;;;;11.07;7.88;;;;;;;20.45;30.20;101909.66;4961318;28;20077;-74
2022/04/18 10:04:51;;;;;;;9.38;6.82;;;;;;;20.66;29.70;101906.13;4970333;28;20049;-74
2022/04/18 10:07:16;;;;;;;8.80;6.43;;;;;;;20.73;28.98;101898.53;4955207;28;20729;-74
2022/04/18 10:09:43;;;;;;;9.00;7.07;;;;;;;20.88;29.53;101897.06;4968575;28;20069;-74
2022/04/18 10:12:09;;;;;;;9.85;6.57;;;;;;;20.96;30.76;101893.91;4952147;28;20076;-74
2022/04/18 10:14:36;;;;;;;13.02;7.75;;;;;;;21.05;29.39;101895.06;4969854;28;20116;-74
2022/04/18 10:17:02;;;;;;;11.80;7.40;;;;;;;21.19;29.79;101890.84;4952196;28;20088;-74
2022/04/18 10:19:38;;;;;;;10.00;6.25;;;;;;;21.24;27.99;101889.25;4963561;28;20060;-74
2022/04/18 10:22:21;;;;;;;11.25;7.72;;;;;;;21.25;27.75;101899.13;4946801;28;20030;-74
2022/04/18 10:25:39;;;;;;;8.75;6.45;;;;;;;21.29;29.80;101890.13;4965906;28;20037;-74
2022/04/18 10:28:10;;;;;;;11.52;7.07;;;;;;;21.66;28.43;101884.75;4896335;28;20144;-74
2022/04/18 10:30:41;;;;;;;14.32;7.38;;;;;;;21.56;27.74;101876.44;4966004;28;20542;-74
2022/04/18 10:33:12;;;;;;;11.35;6.65;;;;;;;21.68;27.95;101881.72;4948703;28;20064;-74
2022/04/18 10:35:53;;;;;;;12.65;7.50;;;;;;;21.74;28.65;101877.13;4956555;28;20060;-74
2022/04/18 10:38:25;;;;;;;10.75;6.60;;;;;;;21.91;28.46;101877.78;4972482;28;20045;-74
2022/04/18 10:40:50;;;;;;;9.73;6.68;;;;;;;22.12;26.81;101881.50;4953797;28;20041;-74
2022/04/18 10:43:16;;;;;;;8.68;6.38;;;;;;;22.17;27.62;101884.28;4968128;28;20532;-74
2022/04/18 10:45:41;;;;;;;10.05;6.47;;;;;;;22.52;26.83;101885.56;4953420;28;20060;-74
2022/04/18 10:48:11;;;;;;;10.40;7.38;;;;;;;22.72;25.21;101882.91;4965828;28;20053;-73
2022/04/18 10:50:49;;;;;;;10.50;6.55;;;;;;;22.35;25.91;101874.78;4954142;28;20088;-73
2022/04/18 10:53:19;;;;;;;7.38;5.57;;;;;;;22.52;25.10;101863.59;4970021;28;20037;-73
2022/04/18 10:55:51;;;;;;;8.90;5.50;;;;;;;22.61;24.01;101879.28;4940928;28;20057;-73
2022/04/18 10:58:20;;;;;;;8.20;5.38;;;;;;;22.58;24.37;101879.84;4966631;28;20022;-73
2022/04/18 11:00:56;;;;;;;8.07;5.88;;;;;;;22.98;24.60;101878.34;4967918;28;20037;-72
2022/04/18 11:03:38;;;;;;;9.48;6.43;;;;;;;22.93;23.98;101870.09;4966949;28;20033;-72
2022/04/18 11:06:09;;;;;;;7.30;5.57;;;;;;;22.75;25.53;101865.91;4966918;28;20050;-73
2022/04/18 11:08:38;;;;;;;8.85;5.78;;;;;;;22.76;24.14;101855.72;4954599;28;20509;-73
2022/04/18 11:11:14;;;;;;;8.43;5.57;;;;;;;22.73;24.23;101859.00;4962801;28;20135;-73
2022/04/18 11:13:46;;;;;;;7.70;4.90;;;;;;;22.80;25.36;101865.06;4947348;28;20050;-73
2022/04/18 11:16:24;;;;;;;6.70;4.65;;;;;;;23.02;23.45;101862.94;4958611;28;20115;-73
2022/04/18 11:19:09;;;;;;;6.88;5.13;;;;;;;23.15;22.53;101860.78;4945269;28;20181;-74
2022/04/18 11:22:00;;;;;;;7.65;5.05;;;;;;;23.13;22.95;101862.97;4949791;28;20125;-74
2022/04/18 11:24:35;;;;;;;12.77;5.43;;;;;;;22.78;23.85;101848.88;4953064;28;20638;-74
2022/04/18 11:27:02;;;;;;;8.38;5.03;;;;;;;22.84;22.91;101857.94;4963138;28;20037;-74
2022/04/18 11:29:30;;;;;;;7.78;4.80;;;;;;;22.74;22.15;101844.16;4944059;28;20085;-74
2022/04/18 11:31:56;;;;;;;7.20;4.97;;;;;;;22.85;22.40;101851.38;4955818;28;20958;-74
2022/04/18 11:34:25;;;;;;;5.82;4.32;;;;;;;22.90;21.79;101843.13;4961727;28;20049;-74
2022/04/18 11:36:50;;;;;;;7.68;4.60;;;;;;;22.82;22.34;101838.16;4962479;28;20042;-74
2022/04/18 11:39:16;;;;;;;8.15;4.72;;;;;;;22.87;22.75;101838.16;4946678;28;20988;-73